sensor_id;sensor_type;location;lat;lon;timestamp;temperature;humidity
32476;DHT22;18929;48.008;10.882;2023-02-15T00:01:28;2.80;99.90
32476;DHT22;18929;48.008;10.882;2023-02-15T00:03:55;2.70;99.90
32476;DHT22;18929;48.008;10.882;2023-02-15T00:06:23;2.70;99.90
32476;DHT22;18929;48.008;10.882;2023-02-15T00:08:50;2.70;99.90
32476;DHT22;18929;48.008;10.882;2023-02-15T00:11:17;2.70;99.90
32476;DHT22;18929;48.008;10.882;2023-02-15T00:14:06;2.70;99.90
32476;DHT22;18929;48.008;10.882;2023-02-15T00:16:34;2.60;99.90
32476;DHT22;18929;48.008;10.882;2023-02-15T00:19:01;2.60;99.90
32476;DHT22;18929;48.008;10.882;2023-02-15T00:21:28;2.60;99.90
32476;DHT22;18929;48.008;10.882;2023-02-15T00:23:55;2.60;99.90
32476;DHT22;18929;48.008;10.882;2023-02-15T00:26:22;2.70;99.90
32476;DHT22;18929;48.008;10.882;2023-02-15T00:28:49;2.70;99.90
32476;DHT22;18929;48.008;10.882;2023-02-15T00:31:17;2.60;99.90
32476;DHT22;18929;48.008;10.882;2023-02-15T00:33:44;2.60;99.90
32476;DHT22;18929;48.008;10.882;2023-02-15T00:36:11;2.60;99.90
32476;DHT22;18929;48.008;10.882;2023-02-15T00:38:38;2.50;99.90
32476;DHT22;18929;48.008;10.882;2023-02-15T00:41:05;2.50;99.90
32476;DHT22;18929;48.008;10.882;2023-02-15T00:43:33;2.60;99.90
32476;DHT22;18929;48.008;10.882;2023-02-15T00:46:00;2.60;99.90
32476;DHT22;18929;48.008;10.882;2023-02-15T00:48:28;2.50;99.90
32476;DHT22;18929;48.008;10.882;2023-02-15T00:50:56;2.10;99.90
32476;DHT22;18929;48.008;10.882;2023-02-15T00:53:23;2.10;99.90
32476;DHT22;18929;48.008;10.882;2023-02-15T00:55:50;2.30;99.90
32476;DHT22;18929;48.008;10.882;2023-02-15T00:58:16;2.50;99.90
32476;DHT22;18929;48.008;10.882;2023-02-15T01:00:44;2.50;99.90
32476;DHT22;18929;48.008;10.882;2023-02-15T01:03:11;2.40;99.90
32476;DHT22;18929;48.008;10.882;2023-02-15T01:05:40;2.30;99.90
32476;DHT22;18929;48.008;10.882;2023-02-15T01:08:07;2.10;99.90
32476;DHT22;18929;48.008;10.882;2023-02-15T01:10:34;2.20;99.90
32476;DHT22;18929;48.008;10.882;2023-02-15T01:13:01;2.30;99.90
32476;DHT22;18929;48.008;10.882;2023-02-15T01:15:28;2.30;99.90
32476;DHT22;18929;48.008;10.882;2023-02-15T01:17:55;2.40;99.90
32476;DHT22;18929;48.008;10.882;2023-02-15T01:20:23;2.40;99.90
32476;DHT22;18929;48.008;10.882;2023-02-15T01:22:51;2.30;99.90
32476;DHT22;18929;48.008;10.882;2023-02-15T01:25:19;2.30;99.90
32476;DHT22;18929;48.008;10.882;2023-02-15T01:27:46;2.30;99.90
32476;DHT22;18929;48.008;10.882;2023-02-15T01:30:13;2.20;99.90
32476;DHT22;18929;48.008;10.882;2023-02-15T01:32:40;2.20;99.90
32476;DHT22;18929;48.008;10.882;2023-02-15T01:35:07;2.20;99.90
32476;DHT22;18929;48.008;10.882;2023-02-15T01:37:34;2.10;99.90
32476;DHT22;18929;48.008;10.882;2023-02-15T01:40:03;2.20;99.90
32476;DHT22;18929;48.008;10.882;2023-02-15T01:42:31;2.10;99.90
32476;DHT22;18929;48.008;10.882;2023-02-15T01:44:58;2.10;99.90
32476;DHT22;18929;48.008;10.882;2023-02-15T01:47:27;2.00;99.90
32476;DHT22;18929;48.008;10.882;2023-02-15T01:49:58;2.00;99.90
32476;DHT22;18929;48.008;10.882;2023-02-15T01:52:26;2.00;99.90
32476;DHT22;18929;48.008;10.882;2023-02-15T01:54:53;2.10;99.90
32476;DHT22;18929;48.008;10.882;2023-02-15T01:57:22;2.10;99.90
32476;DHT22;18929;48.008;10.882;2023-02-15T01:59:51;2.10;99.90
32476;DHT22;18929;48.008;10.882;2023-02-15T02:02:20;1.90;99.90
32476;DHT22;18929;48.008;10.882;2023-02-15T02:04:50;2.00;99.90
32476;DHT22;18929;48.008;10.882;2023-02-15T02:07:18;2.00;99.90
32476;DHT22;18929;48.008;10.882;2023-02-15T02:09:46;2.00;99.90
32476;DHT22;18929;48.008;10.882;2023-02-15T02:12:13;2.00;99.90
32476;DHT22;18929;48.008;10.882;2023-02-15T02:14:42;1.90;99.90
32476;DHT22;18929;48.008;10.882;2023-02-15T02:17:10;1.90;99.90
32476;DHT22;18929;48.008;10.882;2023-02-15T02:19:55;1.90;99.90
32476;DHT22;18929;48.008;10.882;2023-02-15T02:28:14;1.80;99.90
32476;DHT22;18929;48.008;10.882;2023-02-15T02:30:55;1.60;99.90
32476;DHT22;18929;48.008;10.882;2023-02-15T02:33:32;1.60;99.90
32476;DHT22;18929;48.008;10.882;2023-02-15T02:36:05;1.60;99.90
32476;DHT22;18929;48.008;10.882;2023-02-15T02:38:35;2.00;99.90
32476;DHT22;18929;48.008;10.882;2023-02-15T02:41:07;2.00;99.90
32476;DHT22;18929;48.008;10.882;2023-02-15T02:43:37;1.90;99.90
32476;DHT22;18929;48.008;10.882;2023-02-15T02:46:05;1.90;99.90
32476;DHT22;18929;48.008;10.882;2023-02-15T02:48:35;1.90;99.90
32476;DHT22;18929;48.008;10.882;2023-02-15T02:51:03;1.80;99.90
32476;DHT22;18929;48.008;10.882;2023-02-15T02:53:30;1.80;99.90
32476;DHT22;18929;48.008;10.882;2023-02-15T02:55:58;1.80;99.90
32476;DHT22;18929;48.008;10.882;2023-02-15T02:58:26;1.70;99.90
32476;DHT22;18929;48.008;10.882;2023-02-15T03:00:56;1.70;99.90
32476;DHT22;18929;48.008;10.882;2023-02-15T03:03:24;1.70;99.90
32476;DHT22;18929;48.008;10.882;2023-02-15T03:05:54;1.60;99.90
32476;DHT22;18929;48.008;10.882;2023-02-15T03:08:23;1.60;99.90
32476;DHT22;18929;48.008;10.882;2023-02-15T03:10:54;1.70;99.90
32476;DHT22;18929;48.008;10.882;2023-02-15T03:13:22;1.60;99.90
32476;DHT22;18929;48.008;10.882;2023-02-15T03:15:49;1.40;99.90
32476;DHT22;18929;48.008;10.882;2023-02-15T03:18:35;1.30;99.90
32476;DHT22;18929;48.008;10.882;2023-02-15T03:21:04;1.50;99.90
32476;DHT22;18929;48.008;10.882;2023-02-15T03:23:32;1.60;99.90
32476;DHT22;18929;48.008;10.882;2023-02-15T03:26:00;1.60;99.90
32476;DHT22;18929;48.008;10.882;2023-02-15T03:28:28;1.40;99.90
32476;DHT22;18929;48.008;10.882;2023-02-15T03:30:58;1.50;99.90
32476;DHT22;18929;48.008;10.882;2023-02-15T03:33:26;1.50;99.90
32476;DHT22;18929;48.008;10.882;2023-02-15T03:35:55;1.60;99.90
32476;DHT22;18929;48.008;10.882;2023-02-15T03:38:27;1.60;99.90
32476;DHT22;18929;48.008;10.882;2023-02-15T03:40:56;1.50;99.90
32476;DHT22;18929;48.008;10.882;2023-02-15T03:43:37;1.50;99.90
32476;DHT22;18929;48.008;10.882;2023-02-15T03:46:07;1.20;99.90
32476;DHT22;18929;48.008;10.882;2023-02-15T03:48:36;1.30;99.90
32476;DHT22;18929;48.008;10.882;2023-02-15T03:51:04;1.40;99.90
32476;DHT22;18929;48.008;10.882;2023-02-15T03:53:50;1.30;99.90
32476;DHT22;18929;48.008;10.882;2023-02-15T03:56:18;1.20;99.90
32476;DHT22;18929;48.008;10.882;2023-02-15T03:58:45;1.30;99.90
32476;DHT22;18929;48.008;10.882;2023-02-15T04:01:31;1.20;99.90
32476;DHT22;18929;48.008;10.882;2023-02-15T04:04:18;1.30;99.90
32476;DHT22;18929;48.008;10.882;2023-02-15T04:06:45;1.30;99.90
32476;DHT22;18929;48.008;10.882;2023-02-15T04:09:14;1.30;99.90
32476;DHT22;18929;48.008;10.882;2023-02-15T04:11:58;1.30;99.90
32476;DHT22;18929;48.008;10.882;2023-02-15T04:14:25;1.20;99.90
32476;DHT22;18929;48.008;10.882;2023-02-15T04:17:09;1.20;99.90
32476;DHT22;18929;48.008;10.882;2023-02-15T04:19:36;1.20;99.90
32476;DHT22;18929;48.008;10.882;2023-02-15T04:22:20;1.20;99.90
32476;DHT22;18929;48.008;10.882;2023-02-15T04:25:06;1.10;99.90
32476;DHT22;18929;48.008;10.882;2023-02-15T04:27:39;1.00;99.90
32476;DHT22;18929;48.008;10.882;2023-02-15T04:30:07;1.10;99.90
32476;DHT22;18929;48.008;10.882;2023-02-15T04:32:33;1.10;99.90
32476;DHT22;18929;48.008;10.882;2023-02-15T04:35:00;1.10;99.90
32476;DHT22;18929;48.008;10.882;2023-02-15T04:37:27;1.10;99.90
32476;DHT22;18929;48.008;10.882;2023-02-15T04:39:54;1.10;99.90
32476;DHT22;18929;48.008;10.882;2023-02-15T04:42:22;1.20;99.90
32476;DHT22;18929;48.008;10.882;2023-02-15T04:44:49;1.10;99.90
32476;DHT22;18929;48.008;10.882;2023-02-15T04:47:16;0.90;99.90
32476;DHT22;18929;48.008;10.882;2023-02-15T04:49:43;1.00;99.90
32476;DHT22;18929;48.008;10.882;2023-02-15T04:52:10;0.90;99.90
32476;DHT22;18929;48.008;10.882;2023-02-15T04:54:36;0.90;99.90
32476;DHT22;18929;48.008;10.882;2023-02-15T04:57:04;1.00;99.90
32476;DHT22;18929;48.008;10.882;2023-02-15T04:59:32;1.00;99.90
32476;DHT22;18929;48.008;10.882;2023-02-15T05:01:59;1.00;99.90
32476;DHT22;18929;48.008;10.882;2023-02-15T05:04:26;1.00;99.90
32476;DHT22;18929;48.008;10.882;2023-02-15T05:06:53;0.90;99.90
32476;DHT22;18929;48.008;10.882;2023-02-15T05:09:19;0.90;99.90
32476;DHT22;18929;48.008;10.882;2023-02-15T05:11:46;0.70;99.90
32476;DHT22;18929;48.008;10.882;2023-02-15T05:14:13;0.70;99.90
32476;DHT22;18929;48.008;10.882;2023-02-15T05:16:41;0.70;99.90
32476;DHT22;18929;48.008;10.882;2023-02-15T05:19:08;0.70;99.90
32476;DHT22;18929;48.008;10.882;2023-02-15T05:21:35;0.70;99.90
32476;DHT22;18929;48.008;10.882;2023-02-15T05:24:02;0.70;99.90
32476;DHT22;18929;48.008;10.882;2023-02-15T05:26:49;0.70;99.90
32476;DHT22;18929;48.008;10.882;2023-02-15T05:29:33;0.70;99.90
32476;DHT22;18929;48.008;10.882;2023-02-15T05:32:02;0.70;99.90
32476;DHT22;18929;48.008;10.882;2023-02-15T05:34:29;0.70;99.90
32476;DHT22;18929;48.008;10.882;2023-02-15T05:40:18;0.70;99.90
32476;DHT22;18929;48.008;10.882;2023-02-15T05:43:00;0.60;99.90
32476;DHT22;18929;48.008;10.882;2023-02-15T05:45:27;0.60;99.90
32476;DHT22;18929;48.008;10.882;2023-02-15T05:47:55;0.60;99.90
32476;DHT22;18929;48.008;10.882;2023-02-15T05:50:23;0.60;99.90
32476;DHT22;18929;48.008;10.882;2023-02-15T05:52:50;0.50;99.90
32476;DHT22;18929;48.008;10.882;2023-02-15T05:55:17;0.50;99.90
32476;DHT22;18929;48.008;10.882;2023-02-15T05:57:44;0.50;99.90
32476;DHT22;18929;48.008;10.882;2023-02-15T06:00:11;0.60;99.90
32476;DHT22;18929;48.008;10.882;2023-02-15T06:02:39;0.60;99.90
32476;DHT22;18929;48.008;10.882;2023-02-15T06:05:07;0.50;99.90
32476;DHT22;18929;48.008;10.882;2023-02-15T06:07:34;0.50;99.90
32476;DHT22;18929;48.008;10.882;2023-02-15T06:10:01;0.50;99.90
32476;DHT22;18929;48.008;10.882;2023-02-15T06:12:28;0.60;99.90
32476;DHT22;18929;48.008;10.882;2023-02-15T06:14:55;0.60;99.90
32476;DHT22;18929;48.008;10.882;2023-02-15T06:17:22;0.50;99.90
32476;DHT22;18929;48.008;10.882;2023-02-15T06:19:48;0.40;99.90
32476;DHT22;18929;48.008;10.882;2023-02-15T06:22:17;0.40;99.90
32476;DHT22;18929;48.008;10.882;2023-02-15T06:24:43;0.50;99.90
32476;DHT22;18929;48.008;10.882;2023-02-15T06:27:10;0.50;99.90
32476;DHT22;18929;48.008;10.882;2023-02-15T06:29:37;0.50;99.90
32476;DHT22;18929;48.008;10.882;2023-02-15T06:32:04;0.50;99.90
32476;DHT22;18929;48.008;10.882;2023-02-15T06:34:31;0.50;99.90
32476;DHT22;18929;48.008;10.882;2023-02-15T06:36:57;0.50;99.90
32476;DHT22;18929;48.008;10.882;2023-02-15T06:39:25;0.40;99.90
32476;DHT22;18929;48.008;10.882;2023-02-15T06:41:52;0.40;99.90
32476;DHT22;18929;48.008;10.882;2023-02-15T06:44:19;0.40;99.90
32476;DHT22;18929;48.008;10.882;2023-02-15T06:46:46;0.10;99.90
32476;DHT22;18929;48.008;10.882;2023-02-15T06:49:13;0.10;99.90
32476;DHT22;18929;48.008;10.882;2023-02-15T06:51:40;0.30;99.90
32476;DHT22;18929;48.008;10.882;2023-02-15T06:54:06;0.40;99.90
32476;DHT22;18929;48.008;10.882;2023-02-15T06:56:35;0.40;99.90
32476;DHT22;18929;48.008;10.882;2023-02-15T06:59:02;0.30;99.90
32476;DHT22;18929;48.008;10.882;2023-02-15T07:01:28;0.30;99.90
32476;DHT22;18929;48.008;10.882;2023-02-15T07:03:55;0.30;99.90
32476;DHT22;18929;48.008;10.882;2023-02-15T07:06:22;0.20;99.90
32476;DHT22;18929;48.008;10.882;2023-02-15T07:08:49;0.30;99.90
32476;DHT22;18929;48.008;10.882;2023-02-15T07:11:16;0.40;99.90
32476;DHT22;18929;48.008;10.882;2023-02-15T07:14:01;0.50;99.90
32476;DHT22;18929;48.008;10.882;2023-02-15T07:16:28;0.40;99.90
32476;DHT22;18929;48.008;10.882;2023-02-15T07:18:55;0.40;99.90
32476;DHT22;18929;48.008;10.882;2023-02-15T07:21:22;0.30;99.90
32476;DHT22;18929;48.008;10.882;2023-02-15T07:26:41;0.30;99.90
32476;DHT22;18929;48.008;10.882;2023-02-15T07:29:09;0.30;99.90
32476;DHT22;18929;48.008;10.882;2023-02-15T07:31:36;0.30;99.90
32476;DHT22;18929;48.008;10.882;2023-02-15T07:34:02;0.30;99.90
32476;DHT22;18929;48.008;10.882;2023-02-15T07:36:29;0.40;99.90
32476;DHT22;18929;48.008;10.882;2023-02-15T07:38:56;0.40;99.90
32476;DHT22;18929;48.008;10.882;2023-02-15T07:41:23;0.40;99.90
32476;DHT22;18929;48.008;10.882;2023-02-15T07:43:50;0.60;99.90
32476;DHT22;18929;48.008;10.882;2023-02-15T07:46:18;0.60;99.90
32476;DHT22;18929;48.008;10.882;2023-02-15T07:48:46;0.60;99.90
32476;DHT22;18929;48.008;10.882;2023-02-15T07:51:13;0.60;99.90
32476;DHT22;18929;48.008;10.882;2023-02-15T07:53:39;0.70;99.90
32476;DHT22;18929;48.008;10.882;2023-02-15T07:56:07;0.60;99.90
32476;DHT22;18929;48.008;10.882;2023-02-15T07:58:35;0.40;99.90
32476;DHT22;18929;48.008;10.882;2023-02-15T08:01:19;0.50;99.90
32476;DHT22;18929;48.008;10.882;2023-02-15T08:03:47;0.70;99.90
32476;DHT22;18929;48.008;10.882;2023-02-15T08:06:14;0.30;99.90
32476;DHT22;18929;48.008;10.882;2023-02-15T08:08:41;0.10;99.90
32476;DHT22;18929;48.008;10.882;2023-02-15T08:11:13;0.00;99.90
32476;DHT22;18929;48.008;10.882;2023-02-15T08:13:55;0.00;99.90
32476;DHT22;18929;48.008;10.882;2023-02-15T08:16:26;0.20;99.90
32476;DHT22;18929;48.008;10.882;2023-02-15T08:18:54;0.40;99.90
32476;DHT22;18929;48.008;10.882;2023-02-15T08:21:21;0.30;99.90
32476;DHT22;18929;48.008;10.882;2023-02-15T08:23:48;0.30;99.90
32476;DHT22;18929;48.008;10.882;2023-02-15T08:26:15;0.20;99.90
32476;DHT22;18929;48.008;10.882;2023-02-15T08:28:42;0.30;99.90
32476;DHT22;18929;48.008;10.882;2023-02-15T08:31:09;0.50;99.90
32476;DHT22;18929;48.008;10.882;2023-02-15T08:33:39;0.60;99.90
32476;DHT22;18929;48.008;10.882;2023-02-15T08:36:07;0.70;99.90
32476;DHT22;18929;48.008;10.882;2023-02-15T08:38:34;0.80;99.90
32476;DHT22;18929;48.008;10.882;2023-02-15T08:41:08;0.80;99.90
32476;DHT22;18929;48.008;10.882;2023-02-15T08:43:35;0.80;99.90
32476;DHT22;18929;48.008;10.882;2023-02-15T08:46:02;0.90;99.90
32476;DHT22;18929;48.008;10.882;2023-02-15T08:48:29;0.90;99.90
32476;DHT22;18929;48.008;10.882;2023-02-15T08:50:57;1.00;99.90
32476;DHT22;18929;48.008;10.882;2023-02-15T08:53:24;1.20;99.90
32476;DHT22;18929;48.008;10.882;2023-02-15T08:55:54;1.20;99.90
32476;DHT22;18929;48.008;10.882;2023-02-15T08:58:21;1.20;99.90
32476;DHT22;18929;48.008;10.882;2023-02-15T09:00:49;1.30;99.90
32476;DHT22;18929;48.008;10.882;2023-02-15T09:03:16;1.40;99.90
32476;DHT22;18929;48.008;10.882;2023-02-15T09:05:43;1.50;99.90
32476;DHT22;18929;48.008;10.882;2023-02-15T09:08:11;1.70;99.90
32476;DHT22;18929;48.008;10.882;2023-02-15T09:10:37;1.80;99.90
32476;DHT22;18929;48.008;10.882;2023-02-15T09:13:04;1.70;99.90
32476;DHT22;18929;48.008;10.882;2023-02-15T09:15:31;2.00;99.90
32476;DHT22;18929;48.008;10.882;2023-02-15T09:17:58;2.00;99.90
32476;DHT22;18929;48.008;10.882;2023-02-15T09:23:36;2.20;99.90
32476;DHT22;18929;48.008;10.882;2023-02-15T09:26:04;2.20;99.90
32476;DHT22;18929;48.008;10.882;2023-02-15T09:28:31;2.50;99.90
32476;DHT22;18929;48.008;10.882;2023-02-15T09:31:06;2.70;99.90
32476;DHT22;18929;48.008;10.882;2023-02-15T09:33:33;2.80;99.90
32476;DHT22;18929;48.008;10.882;2023-02-15T09:36:00;2.90;99.90
32476;DHT22;18929;48.008;10.882;2023-02-15T09:38:26;3.00;99.90
32476;DHT22;18929;48.008;10.882;2023-02-15T09:40:56;2.90;99.90
32476;DHT22;18929;48.008;10.882;2023-02-15T09:43:30;2.90;99.90
32476;DHT22;18929;48.008;10.882;2023-02-15T09:46:08;3.50;99.90
32476;DHT22;18929;48.008;10.882;2023-02-15T09:48:41;3.10;99.90
32476;DHT22;18929;48.008;10.882;2023-02-15T09:51:18;3.10;99.90
32476;DHT22;18929;48.008;10.882;2023-02-15T09:53:50;3.20;99.90
32476;DHT22;18929;48.008;10.882;2023-02-15T09:56:23;3.70;99.90
32476;DHT22;18929;48.008;10.882;2023-02-15T09:58:53;3.90;99.90
32476;DHT22;18929;48.008;10.882;2023-02-15T10:01:25;4.10;99.90
32476;DHT22;18929;48.008;10.882;2023-02-15T10:03:57;4.00;99.90
32476;DHT22;18929;48.008;10.882;2023-02-15T10:06:31;4.10;99.90
32476;DHT22;18929;48.008;10.882;2023-02-15T10:09:03;4.20;99.90
32476;DHT22;18929;48.008;10.882;2023-02-15T10:11:39;4.30;99.90
32476;DHT22;18929;48.008;10.882;2023-02-15T10:14:18;4.60;99.90
32476;DHT22;18929;48.008;10.882;2023-02-15T10:16:48;4.80;99.90
32476;DHT22;18929;48.008;10.882;2023-02-15T10:19:18;4.80;99.90
32476;DHT22;18929;48.008;10.882;2023-02-15T10:21:52;4.90;99.90
32476;DHT22;18929;48.008;10.882;2023-02-15T10:24:25;4.90;99.90
32476;DHT22;18929;48.008;10.882;2023-02-15T10:26:58;5.10;99.90
32476;DHT22;18929;48.008;10.882;2023-02-15T10:29:29;5.30;99.90
32476;DHT22;18929;48.008;10.882;2023-02-15T10:32:02;5.30;99.90
32476;DHT22;18929;48.008;10.882;2023-02-15T10:34:32;5.50;99.90
32476;DHT22;18929;48.008;10.882;2023-02-15T10:37:10;5.80;99.90
32476;DHT22;18929;48.008;10.882;2023-02-15T10:39:43;5.90;99.90
32476;DHT22;18929;48.008;10.882;2023-02-15T10:42:17;6.00;99.90
32476;DHT22;18929;48.008;10.882;2023-02-15T10:44:50;5.90;99.90
32476;DHT22;18929;48.008;10.882;2023-02-15T10:47:35;6.10;99.90
32476;DHT22;18929;48.008;10.882;2023-02-15T10:50:08;6.60;99.90
32476;DHT22;18929;48.008;10.882;2023-02-15T10:52:43;6.50;99.90
32476;DHT22;18929;48.008;10.882;2023-02-15T10:55:15;6.20;99.90
32476;DHT22;18929;48.008;10.882;2023-02-15T10:57:46;6.10;99.90
32476;DHT22;18929;48.008;10.882;2023-02-15T11:00:18;5.60;99.90
32476;DHT22;18929;48.008;10.882;2023-02-15T11:02:51;5.80;99.90
32476;DHT22;18929;48.008;10.882;2023-02-15T11:08:08;6.00;99.90
32476;DHT22;18929;48.008;10.882;2023-02-15T11:10:37;5.80;99.90
32476;DHT22;18929;48.008;10.882;2023-02-15T11:13:09;6.50;99.90
32476;DHT22;18929;48.008;10.882;2023-02-15T11:15:38;7.30;99.90
32476;DHT22;18929;48.008;10.882;2023-02-15T11:18:06;7.10;99.90
32476;DHT22;18929;48.008;10.882;2023-02-15T11:20:36;7.50;99.90
32476;DHT22;18929;48.008;10.882;2023-02-15T11:23:07;7.30;99.90
32476;DHT22;18929;48.008;10.882;2023-02-15T11:25:35;8.10;99.90
32476;DHT22;18929;48.008;10.882;2023-02-15T11:28:03;8.30;99.90
32476;DHT22;18929;48.008;10.882;2023-02-15T11:30:36;8.10;99.90
32476;DHT22;18929;48.008;10.882;2023-02-15T11:33:12;7.90;99.90
32476;DHT22;18929;48.008;10.882;2023-02-15T11:35:46;8.40;99.90
32476;DHT22;18929;48.008;10.882;2023-02-15T11:38:16;8.00;99.90
32476;DHT22;18929;48.008;10.882;2023-02-15T11:40:46;8.10;99.90
32476;DHT22;18929;48.008;10.882;2023-02-15T11:43:15;8.50;99.90
32476;DHT22;18929;48.008;10.882;2023-02-15T11:45:44;8.40;99.90
32476;DHT22;18929;48.008;10.882;2023-02-15T11:48:12;8.80;99.90
32476;DHT22;18929;48.008;10.882;2023-02-15T11:50:39;8.90;99.90
32476;DHT22;18929;48.008;10.882;2023-02-15T11:53:09;8.70;99.90
32476;DHT22;18929;48.008;10.882;2023-02-15T11:55:37;9.00;99.90
32476;DHT22;18929;48.008;10.882;2023-02-15T11:58:06;9.10;99.90
32476;DHT22;18929;48.008;10.882;2023-02-15T12:00:36;8.80;99.90
32476;DHT22;18929;48.008;10.882;2023-02-15T12:03:09;8.70;99.90
32476;DHT22;18929;48.008;10.882;2023-02-15T12:05:42;9.20;99.90
32476;DHT22;18929;48.008;10.882;2023-02-15T12:08:17;9.30;99.90
32476;DHT22;18929;48.008;10.882;2023-02-15T12:10:51;9.40;99.90
32476;DHT22;18929;48.008;10.882;2023-02-15T12:13:20;9.60;99.90
32476;DHT22;18929;48.008;10.882;2023-02-15T12:15:47;9.90;99.90
32476;DHT22;18929;48.008;10.882;2023-02-15T12:18:31;9.90;99.90
32476;DHT22;18929;48.008;10.882;2023-02-15T12:21:00;9.60;99.90
32476;DHT22;18929;48.008;10.882;2023-02-15T12:23:28;9.80;99.90
32476;DHT22;18929;48.008;10.882;2023-02-15T12:25:55;10.00;99.90
32476;DHT22;18929;48.008;10.882;2023-02-15T12:28:24;9.80;99.90
32476;DHT22;18929;48.008;10.882;2023-02-15T12:30:52;10.00;99.90
32476;DHT22;18929;48.008;10.882;2023-02-15T12:33:25;10.30;99.90
32476;DHT22;18929;48.008;10.882;2023-02-15T12:35:54;10.00;99.90
32476;DHT22;18929;48.008;10.882;2023-02-15T12:38:23;10.30;99.90
32476;DHT22;18929;48.008;10.882;2023-02-15T12:40:56;10.40;99.90
32476;DHT22;18929;48.008;10.882;2023-02-15T12:43:24;10.70;99.90
32476;DHT22;18929;48.008;10.882;2023-02-15T12:45:51;10.70;99.90
32476;DHT22;18929;48.008;10.882;2023-02-15T12:48:19;10.30;99.90
32476;DHT22;18929;48.008;10.882;2023-02-15T12:50:48;10.50;99.90
32476;DHT22;18929;48.008;10.882;2023-02-15T12:53:16;10.40;99.90
32476;DHT22;18929;48.008;10.882;2023-02-15T12:55:51;10.70;99.90
32476;DHT22;18929;48.008;10.882;2023-02-15T12:58:19;10.20;99.90
32476;DHT22;18929;48.008;10.882;2023-02-15T13:00:47;10.30;99.90
32476;DHT22;18929;48.008;10.882;2023-02-15T13:03:18;10.80;99.90
32476;DHT22;18929;48.008;10.882;2023-02-15T13:05:47;11.40;99.90
32476;DHT22;18929;48.008;10.882;2023-02-15T13:08:17;11.00;99.90
32476;DHT22;18929;48.008;10.882;2023-02-15T13:10:52;10.90;99.90
32476;DHT22;18929;48.008;10.882;2023-02-15T13:13:20;10.70;99.90
32476;DHT22;18929;48.008;10.882;2023-02-15T13:15:49;11.30;99.90
32476;DHT22;18929;48.008;10.882;2023-02-15T13:18:17;11.30;99.90
32476;DHT22;18929;48.008;10.882;2023-02-15T13:20:45;11.20;99.90
32476;DHT22;18929;48.008;10.882;2023-02-15T13:23:20;11.60;99.90
32476;DHT22;18929;48.008;10.882;2023-02-15T13:25:48;11.60;99.90
32476;DHT22;18929;48.008;10.882;2023-02-15T13:28:16;11.70;99.90
32476;DHT22;18929;48.008;10.882;2023-02-15T13:30:45;11.20;99.90
32476;DHT22;18929;48.008;10.882;2023-02-15T13:33:14;11.30;99.90
32476;DHT22;18929;48.008;10.882;2023-02-15T13:35:44;11.60;99.90
32476;DHT22;18929;48.008;10.882;2023-02-15T13:40:58;11.40;99.90
32476;DHT22;18929;48.008;10.882;2023-02-15T13:43:30;11.40;99.90
32476;DHT22;18929;48.008;10.882;2023-02-15T13:46:04;11.20;99.90
32476;DHT22;18929;48.008;10.882;2023-02-15T13:48:35;11.10;99.90
32476;DHT22;18929;48.008;10.882;2023-02-15T13:51:06;11.10;99.90
32476;DHT22;18929;48.008;10.882;2023-02-15T13:53:38;11.20;99.90
32476;DHT22;18929;48.008;10.882;2023-02-15T13:56:11;11.40;99.90
32476;DHT22;18929;48.008;10.882;2023-02-15T14:01:24;11.40;99.90
32476;DHT22;18929;48.008;10.882;2023-02-15T14:04:00;11.20;99.90
32476;DHT22;18929;48.008;10.882;2023-02-15T14:06:40;11.30;99.90
32476;DHT22;18929;48.008;10.882;2023-02-15T14:09:11;11.40;99.90
32476;DHT22;18929;48.008;10.882;2023-02-15T14:11:44;11.40;99.90
32476;DHT22;18929;48.008;10.882;2023-02-15T14:14:23;11.50;99.90
32476;DHT22;18929;48.008;10.882;2023-02-15T14:16:54;11.60;99.90
32476;DHT22;18929;48.008;10.882;2023-02-15T14:19:35;11.90;99.90
32476;DHT22;18929;48.008;10.882;2023-02-15T14:22:09;11.80;99.90
32476;DHT22;18929;48.008;10.882;2023-02-15T14:24:38;11.90;99.90
32476;DHT22;18929;48.008;10.882;2023-02-15T14:27:12;12.00;99.90
32476;DHT22;18929;48.008;10.882;2023-02-15T14:29:46;11.50;99.90
32476;DHT22;18929;48.008;10.882;2023-02-15T14:32:16;11.30;99.90
32476;DHT22;18929;48.008;10.882;2023-02-15T14:34:46;11.50;99.90
32476;DHT22;18929;48.008;10.882;2023-02-15T14:37:16;11.60;99.90
32476;DHT22;18929;48.008;10.882;2023-02-15T14:39:47;10.90;99.90
32476;DHT22;18929;48.008;10.882;2023-02-15T14:42:38;11.20;99.90
32476;DHT22;18929;48.008;10.882;2023-02-15T18:14:07;6.50;99.90
32476;DHT22;18929;48.008;10.882;2023-02-15T18:16:35;6.50;99.90
32476;DHT22;18929;48.008;10.882;2023-02-15T18:19:03;6.80;99.90
32476;DHT22;18929;48.008;10.882;2023-02-15T18:24:01;7.00;99.90
32476;DHT22;18929;48.008;10.882;2023-02-15T18:26:28;7.20;99.90
32476;DHT22;18929;48.008;10.882;2023-02-15T18:28:55;7.20;99.90
32476;DHT22;18929;48.008;10.882;2023-02-15T18:31:23;7.20;99.90
32476;DHT22;18929;48.008;10.882;2023-02-15T18:33:51;7.20;99.90
32476;DHT22;18929;48.008;10.882;2023-02-15T18:36:20;7.20;99.90
32476;DHT22;18929;48.008;10.882;2023-02-15T18:38:47;7.20;99.90
32476;DHT22;18929;48.008;10.882;2023-02-15T18:41:15;7.10;99.90
32476;DHT22;18929;48.008;10.882;2023-02-15T18:43:43;7.00;99.90
32476;DHT22;18929;48.008;10.882;2023-02-15T18:46:10;6.90;99.90
32476;DHT22;18929;48.008;10.882;2023-02-15T18:48:38;6.90;99.90
32476;DHT22;18929;48.008;10.882;2023-02-15T18:51:23;6.80;99.90
32476;DHT22;18929;48.008;10.882;2023-02-15T18:53:50;6.90;99.90
32476;DHT22;18929;48.008;10.882;2023-02-15T18:56:18;6.80;99.90
32476;DHT22;18929;48.008;10.882;2023-02-15T18:58:46;6.80;99.90
32476;DHT22;18929;48.008;10.882;2023-02-15T19:01:32;6.80;99.90
32476;DHT22;18929;48.008;10.882;2023-02-15T19:04:00;6.90;99.90
32476;DHT22;18929;48.008;10.882;2023-02-15T19:06:27;6.80;99.90
32476;DHT22;18929;48.008;10.882;2023-02-15T19:08:54;6.70;99.90
32476;DHT22;18929;48.008;10.882;2023-02-15T19:11:22;6.70;99.90
32476;DHT22;18929;48.008;10.882;2023-02-15T19:13:50;6.70;99.90
32476;DHT22;18929;48.008;10.882;2023-02-15T19:19:03;6.70;99.90
32476;DHT22;18929;48.008;10.882;2023-02-15T19:21:30;6.60;99.90
32476;DHT22;18929;48.008;10.882;2023-02-15T19:23:58;6.60;99.90
32476;DHT22;18929;48.008;10.882;2023-02-15T19:26:26;6.50;99.90
32476;DHT22;18929;48.008;10.882;2023-02-15T19:28:56;6.50;99.90
32476;DHT22;18929;48.008;10.882;2023-02-15T19:31:23;6.50;99.90
32476;DHT22;18929;48.008;10.882;2023-02-15T19:33:50;6.50;99.90
32476;DHT22;18929;48.008;10.882;2023-02-15T19:36:18;6.50;99.90
32476;DHT22;18929;48.008;10.882;2023-02-15T19:38:48;6.40;99.90
32476;DHT22;18929;48.008;10.882;2023-02-15T19:41:16;6.30;99.90
32476;DHT22;18929;48.008;10.882;2023-02-15T19:43:44;6.30;99.90